sensor_id;sensor_type;location;lat;lon;timestamp;temperature;humidity
2639;DHT22;1329;51.384;7.122;2023-07-28T00:00:11;19.00;99.90
2639;DHT22;1329;51.384;7.122;2023-07-28T00:02:41;19.00;99.90
2639;DHT22;1329;51.384;7.122;2023-07-28T00:05:13;19.00;99.90
2639;DHT22;1329;51.384;7.122;2023-07-28T00:07:43;19.00;99.90
2639;DHT22;1329;51.384;7.122;2023-07-28T00:10:11;19.00;99.90
2639;DHT22;1329;51.384;7.122;2023-07-28T00:12:38;19.00;99.90
2639;DHT22;1329;51.384;7.122;2023-07-28T00:15:10;19.00;99.90
2639;DHT22;1329;51.384;7.122;2023-07-28T00:17:43;19.00;99.90
2639;DHT22;1329;51.384;7.122;2023-07-28T00:20:13;19.00;99.90
2639;DHT22;1329;51.384;7.122;2023-07-28T00:22:43;19.00;99.90
2639;DHT22;1329;51.384;7.122;2023-07-28T00:25:12;19.00;99.90
2639;DHT22;1329;51.384;7.122;2023-07-28T00:27:42;19.00;99.90
2639;DHT22;1329;51.384;7.122;2023-07-28T00:30:10;19.00;99.90
2639;DHT22;1329;51.384;7.122;2023-07-28T00:32:38;19.00;99.90
2639;DHT22;1329;51.384;7.122;2023-07-28T00:35:13;19.00;99.90
2639;DHT22;1329;51.384;7.122;2023-07-28T00:37:40;19.00;99.90
2639;DHT22;1329;51.384;7.122;2023-07-28T00:40:08;19.00;99.90
2639;DHT22;1329;51.384;7.122;2023-07-28T00:42:36;19.00;99.90
2639;DHT22;1329;51.384;7.122;2023-07-28T00:45:07;19.00;99.90
2639;DHT22;1329;51.384;7.122;2023-07-28T00:47:38;19.00;99.90
2639;DHT22;1329;51.384;7.122;2023-07-28T00:50:07;19.00;99.90
2639;DHT22;1329;51.384;7.122;2023-07-28T00:52:37;18.90;99.90
2639;DHT22;1329;51.384;7.122;2023-07-28T00:55:07;19.00;99.90
2639;DHT22;1329;51.384;7.122;2023-07-28T00:57:35;19.00;99.90
2639;DHT22;1329;51.384;7.122;2023-07-28T01:00:06;19.00;99.90
2639;DHT22;1329;51.384;7.122;2023-07-28T01:02:36;19.00;99.90
2639;DHT22;1329;51.384;7.122;2023-07-28T01:05:05;19.00;99.90
2639;DHT22;1329;51.384;7.122;2023-07-28T01:07:38;19.00;99.90
2639;DHT22;1329;51.384;7.122;2023-07-28T01:10:13;19.00;99.90
2639;DHT22;1329;51.384;7.122;2023-07-28T01:12:42;19.00;99.90
2639;DHT22;1329;51.384;7.122;2023-07-28T01:15:09;18.90;99.90
2639;DHT22;1329;51.384;7.122;2023-07-28T01:17:36;19.00;99.90
2639;DHT22;1329;51.384;7.122;2023-07-28T01:20:04;19.00;99.90
2639;DHT22;1329;51.384;7.122;2023-07-28T01:22:48;19.00;99.90
2639;DHT22;1329;51.384;7.122;2023-07-28T01:25:32;19.00;99.90
2639;DHT22;1329;51.384;7.122;2023-07-28T01:28:19;19.00;99.90
2639;DHT22;1329;51.384;7.122;2023-07-28T01:30:46;19.00;99.90
2639;DHT22;1329;51.384;7.122;2023-07-28T01:33:17;19.00;99.90
2639;DHT22;1329;51.384;7.122;2023-07-28T01:35:44;19.00;99.90
2639;DHT22;1329;51.384;7.122;2023-07-28T01:38:11;19.00;99.90
2639;DHT22;1329;51.384;7.122;2023-07-28T01:40:38;19.00;99.90
2639;DHT22;1329;51.384;7.122;2023-07-28T01:43:11;19.00;99.90
2639;DHT22;1329;51.384;7.122;2023-07-28T01:45:39;19.00;99.90
2639;DHT22;1329;51.384;7.122;2023-07-28T01:48:09;19.00;99.90
2639;DHT22;1329;51.384;7.122;2023-07-28T01:50:37;19.00;99.90
2639;DHT22;1329;51.384;7.122;2023-07-28T01:53:05;19.00;99.90
2639;DHT22;1329;51.384;7.122;2023-07-28T01:55:35;19.00;99.90
2639;DHT22;1329;51.384;7.122;2023-07-28T01:58:02;19.00;99.90
2639;DHT22;1329;51.384;7.122;2023-07-28T02:00:31;19.00;99.90
2639;DHT22;1329;51.384;7.122;2023-07-28T02:02:59;19.00;99.90
2639;DHT22;1329;51.384;7.122;2023-07-28T02:05:30;19.00;99.90
2639;DHT22;1329;51.384;7.122;2023-07-28T02:08:00;19.00;99.90
2639;DHT22;1329;51.384;7.122;2023-07-28T02:10:29;19.00;99.90
2639;DHT22;1329;51.384;7.122;2023-07-28T02:12:56;19.00;99.90
2639;DHT22;1329;51.384;7.122;2023-07-28T02:15:23;19.00;99.90
2639;DHT22;1329;51.384;7.122;2023-07-28T02:17:51;19.00;99.90
2639;DHT22;1329;51.384;7.122;2023-07-28T02:20:20;19.00;99.90
2639;DHT22;1329;51.384;7.122;2023-07-28T02:22:49;19.00;99.90
2639;DHT22;1329;51.384;7.122;2023-07-28T02:25:16;19.00;99.90
2639;DHT22;1329;51.384;7.122;2023-07-28T02:27:43;19.00;99.90
2639;DHT22;1329;51.384;7.122;2023-07-28T02:30:10;19.00;99.90
2639;DHT22;1329;51.384;7.122;2023-07-28T02:32:37;19.00;99.90
2639;DHT22;1329;51.384;7.122;2023-07-28T02:35:06;19.10;99.90
2639;DHT22;1329;51.384;7.122;2023-07-28T02:37:35;19.00;99.90
2639;DHT22;1329;51.384;7.122;2023-07-28T02:40:03;19.10;99.90
2639;DHT22;1329;51.384;7.122;2023-07-28T02:42:30;19.10;99.90
2639;DHT22;1329;51.384;7.122;2023-07-28T02:44:59;19.10;99.90
2639;DHT22;1329;51.384;7.122;2023-07-28T02:47:26;19.10;99.90
2639;DHT22;1329;51.384;7.122;2023-07-28T02:49:53;19.10;99.90
2639;DHT22;1329;51.384;7.122;2023-07-28T02:52:24;19.10;99.90
2639;DHT22;1329;51.384;7.122;2023-07-28T02:54:53;19.10;99.90
2639;DHT22;1329;51.384;7.122;2023-07-28T02:57:22;19.10;99.90
2639;DHT22;1329;51.384;7.122;2023-07-28T02:59:49;19.10;99.90
2639;DHT22;1329;51.384;7.122;2023-07-28T03:02:16;19.10;99.90
2639;DHT22;1329;51.384;7.122;2023-07-28T03:04:43;19.10;99.90
2639;DHT22;1329;51.384;7.122;2023-07-28T03:07:10;19.10;99.90
2639;DHT22;1329;51.384;7.122;2023-07-28T03:09:37;19.10;99.90
2639;DHT22;1329;51.384;7.122;2023-07-28T03:12:12;19.10;99.90
2639;DHT22;1329;51.384;7.122;2023-07-28T03:14:43;19.10;99.90
2639;DHT22;1329;51.384;7.122;2023-07-28T03:17:10;19.10;99.90
2639;DHT22;1329;51.384;7.122;2023-07-28T03:19:37;19.10;99.90
2639;DHT22;1329;51.384;7.122;2023-07-28T03:22:04;19.10;99.90
2639;DHT22;1329;51.384;7.122;2023-07-28T03:24:32;19.10;99.90
2639;DHT22;1329;51.384;7.122;2023-07-28T03:26:59;19.10;99.90
2639;DHT22;1329;51.384;7.122;2023-07-28T03:29:30;19.20;99.90
2639;DHT22;1329;51.384;7.122;2023-07-28T03:31:57;19.20;99.90
2639;DHT22;1329;51.384;7.122;2023-07-28T03:34:24;19.10;99.90
2639;DHT22;1329;51.384;7.122;2023-07-28T03:36:52;19.20;99.90
2639;DHT22;1329;51.384;7.122;2023-07-28T03:39:19;19.10;99.90
2639;DHT22;1329;51.384;7.122;2023-07-28T03:41:47;19.10;99.90
2639;DHT22;1329;51.384;7.122;2023-07-28T03:44:14;19.20;99.90
2639;DHT22;1329;51.384;7.122;2023-07-28T03:46:46;19.10;99.90
2639;DHT22;1329;51.384;7.122;2023-07-28T03:49:13;19.10;99.90
2639;DHT22;1329;51.384;7.122;2023-07-28T03:51:40;19.10;99.90
2639;DHT22;1329;51.384;7.122;2023-07-28T03:54:07;19.20;99.90
2639;DHT22;1329;51.384;7.122;2023-07-28T03:56:35;19.20;99.90
2639;DHT22;1329;51.384;7.122;2023-07-28T03:59:01;19.20;99.90
2639;DHT22;1329;51.384;7.122;2023-07-28T04:01:31;19.20;99.90
2639;DHT22;1329;51.384;7.122;2023-07-28T04:03:59;19.20;99.90
2639;DHT22;1329;51.384;7.122;2023-07-28T04:06:42;19.20;99.90
2639;DHT22;1329;51.384;7.122;2023-07-28T04:09:13;19.20;99.90
2639;DHT22;1329;51.384;7.122;2023-07-28T04:11:41;19.30;99.90
2639;DHT22;1329;51.384;7.122;2023-07-28T04:14:09;19.20;99.90
2639;DHT22;1329;51.384;7.122;2023-07-28T04:16:36;19.20;99.90
2639;DHT22;1329;51.384;7.122;2023-07-28T04:19:04;19.20;99.90
2639;DHT22;1329;51.384;7.122;2023-07-28T04:21:31;19.20;99.90
2639;DHT22;1329;51.384;7.122;2023-07-28T04:23:58;19.20;99.90
2639;DHT22;1329;51.384;7.122;2023-07-28T04:26:25;19.20;99.90
2639;DHT22;1329;51.384;7.122;2023-07-28T04:28:53;19.20;99.90
2639;DHT22;1329;51.384;7.122;2023-07-28T04:31:20;19.20;99.90
2639;DHT22;1329;51.384;7.122;2023-07-28T04:33:47;19.20;99.90
2639;DHT22;1329;51.384;7.122;2023-07-28T04:36:16;19.20;99.90
2639;DHT22;1329;51.384;7.122;2023-07-28T04:38:43;19.20;99.90
2639;DHT22;1329;51.384;7.122;2023-07-28T04:41:10;19.30;99.90
2639;DHT22;1329;51.384;7.122;2023-07-28T04:43:37;19.30;99.90
2639;DHT22;1329;51.384;7.122;2023-07-28T04:46:04;19.20;99.90
2639;DHT22;1329;51.384;7.122;2023-07-28T04:48:34;19.30;99.90
2639;DHT22;1329;51.384;7.122;2023-07-28T04:51:01;19.30;99.90
2639;DHT22;1329;51.384;7.122;2023-07-28T04:53:33;19.30;99.90
2639;DHT22;1329;51.384;7.122;2023-07-28T04:56:00;19.30;99.90
2639;DHT22;1329;51.384;7.122;2023-07-28T04:58:28;19.30;99.90
2639;DHT22;1329;51.384;7.122;2023-07-28T05:00:55;19.30;99.90
2639;DHT22;1329;51.384;7.122;2023-07-28T05:03:23;19.30;99.90
2639;DHT22;1329;51.384;7.122;2023-07-28T05:05:52;19.30;99.90
2639;DHT22;1329;51.384;7.122;2023-07-28T05:08:19;19.40;99.90
2639;DHT22;1329;51.384;7.122;2023-07-28T05:10:48;19.40;99.90
2639;DHT22;1329;51.384;7.122;2023-07-28T05:13:18;19.40;99.90
2639;DHT22;1329;51.384;7.122;2023-07-28T05:15:45;19.40;99.90
2639;DHT22;1329;51.384;7.122;2023-07-28T05:18:12;19.40;99.90
2639;DHT22;1329;51.384;7.122;2023-07-28T05:20:39;19.40;99.90
2639;DHT22;1329;51.384;7.122;2023-07-28T05:23:06;19.40;99.90
2639;DHT22;1329;51.384;7.122;2023-07-28T05:25:33;19.50;99.90
2639;DHT22;1329;51.384;7.122;2023-07-28T05:28:02;19.40;99.90
2639;DHT22;1329;51.384;7.122;2023-07-28T05:30:32;19.50;99.90
2639;DHT22;1329;51.384;7.122;2023-07-28T05:32:59;19.60;99.90
2639;DHT22;1329;51.384;7.122;2023-07-28T05:35:26;19.50;99.90
2639;DHT22;1329;51.384;7.122;2023-07-28T05:37:53;19.60;99.90
2639;DHT22;1329;51.384;7.122;2023-07-28T05:40:20;19.60;99.90
2639;DHT22;1329;51.384;7.122;2023-07-28T05:42:50;19.60;99.90
2639;DHT22;1329;51.384;7.122;2023-07-28T05:45:18;19.60;99.90
2639;DHT22;1329;51.384;7.122;2023-07-28T05:47:45;19.60;99.90
2639;DHT22;1329;51.384;7.122;2023-07-28T05:50:12;19.60;99.90
2639;DHT22;1329;51.384;7.122;2023-07-28T05:52:39;19.70;99.90
2639;DHT22;1329;51.384;7.122;2023-07-28T05:55:07;19.60;99.90
2639;DHT22;1329;51.384;7.122;2023-07-28T05:57:35;19.60;99.90
2639;DHT22;1329;51.384;7.122;2023-07-28T06:00:02;19.60;99.90
2639;DHT22;1329;51.384;7.122;2023-07-28T06:02:37;19.60;99.90
2639;DHT22;1329;51.384;7.122;2023-07-28T06:05:05;19.70;99.90
2639;DHT22;1329;51.384;7.122;2023-07-28T06:07:35;19.70;99.90
2639;DHT22;1329;51.384;7.122;2023-07-28T06:10:02;19.70;99.90
2639;DHT22;1329;51.384;7.122;2023-07-28T06:12:30;19.70;99.90
2639;DHT22;1329;51.384;7.122;2023-07-28T06:14:57;19.70;99.90
2639;DHT22;1329;51.384;7.122;2023-07-28T06:17:24;19.80;99.90
2639;DHT22;1329;51.384;7.122;2023-07-28T06:19:56;19.80;99.90
2639;DHT22;1329;51.384;7.122;2023-07-28T06:22:26;19.80;99.90
2639;DHT22;1329;51.384;7.122;2023-07-28T06:24:53;19.80;99.90
2639;DHT22;1329;51.384;7.122;2023-07-28T06:27:20;19.80;99.90
2639;DHT22;1329;51.384;7.122;2023-07-28T06:29:47;19.80;99.90
2639;DHT22;1329;51.384;7.122;2023-07-28T06:32:14;19.90;99.90
2639;DHT22;1329;51.384;7.122;2023-07-28T06:34:42;19.90;99.90
2639;DHT22;1329;51.384;7.122;2023-07-28T06:37:10;19.90;99.90
2639;DHT22;1329;51.384;7.122;2023-07-28T06:39:40;19.90;99.90
2639;DHT22;1329;51.384;7.122;2023-07-28T06:42:07;20.00;99.90
2639;DHT22;1329;51.384;7.122;2023-07-28T06:44:38;20.00;99.90
2639;DHT22;1329;51.384;7.122;2023-07-28T06:47:08;20.00;99.90
2639;DHT22;1329;51.384;7.122;2023-07-28T06:49:35;20.00;99.90
2639;DHT22;1329;51.384;7.122;2023-07-28T06:52:04;20.10;99.90
2639;DHT22;1329;51.384;7.122;2023-07-28T06:54:33;20.10;99.90
2639;DHT22;1329;51.384;7.122;2023-07-28T06:57:00;20.10;99.90
2639;DHT22;1329;51.384;7.122;2023-07-28T06:59:27;20.10;99.90
2639;DHT22;1329;51.384;7.122;2023-07-28T07:01:54;20.20;99.90
2639;DHT22;1329;51.384;7.122;2023-07-28T07:04:21;20.10;99.90
2639;DHT22;1329;51.384;7.122;2023-07-28T07:06:48;20.20;99.90
2639;DHT22;1329;51.384;7.122;2023-07-28T07:09:15;20.20;99.90
2639;DHT22;1329;51.384;7.122;2023-07-28T07:11:44;20.20;99.90
2639;DHT22;1329;51.384;7.122;2023-07-28T07:14:14;20.20;99.90
2639;DHT22;1329;51.384;7.122;2023-07-28T07:16:48;20.20;99.90
2639;DHT22;1329;51.384;7.122;2023-07-28T07:19:24;20.20;99.90
2639;DHT22;1329;51.384;7.122;2023-07-28T07:21:53;20.30;99.90
2639;DHT22;1329;51.384;7.122;2023-07-28T07:24:29;20.30;99.90
2639;DHT22;1329;51.384;7.122;2023-07-28T07:26:57;20.40;99.90
2639;DHT22;1329;51.384;7.122;2023-07-28T07:32:09;20.50;99.90
2639;DHT22;1329;51.384;7.122;2023-07-28T07:34:37;20.50;99.90
2639;DHT22;1329;51.384;7.122;2023-07-28T07:37:04;20.50;99.90
2639;DHT22;1329;51.384;7.122;2023-07-28T07:39:32;20.60;99.90
2639;DHT22;1329;51.384;7.122;2023-07-28T07:42:09;20.60;99.90
2639;DHT22;1329;51.384;7.122;2023-07-28T07:44:36;20.60;99.90
2639;DHT22;1329;51.384;7.122;2023-07-28T07:47:12;20.60;99.90
2639;DHT22;1329;51.384;7.122;2023-07-28T07:49:39;20.70;99.90
2639;DHT22;1329;51.384;7.122;2023-07-28T07:52:08;20.70;99.90
2639;DHT22;1329;51.384;7.122;2023-07-28T07:54:38;20.70;99.90
2639;DHT22;1329;51.384;7.122;2023-07-28T07:57:25;20.70;99.90
2639;DHT22;1329;51.384;7.122;2023-07-28T07:59:52;20.80;99.90
2639;DHT22;1329;51.384;7.122;2023-07-28T08:02:19;20.70;99.90
2639;DHT22;1329;51.384;7.122;2023-07-28T08:04:46;20.80;99.90
2639;DHT22;1329;51.384;7.122;2023-07-28T08:07:16;20.80;99.90
2639;DHT22;1329;51.384;7.122;2023-07-28T08:09:43;20.80;99.90
2639;DHT22;1329;51.384;7.122;2023-07-28T08:12:13;20.80;99.90
2639;DHT22;1329;51.384;7.122;2023-07-28T08:14:51;20.90;99.90
2639;DHT22;1329;51.384;7.122;2023-07-28T08:17:19;21.00;99.90
2639;DHT22;1329;51.384;7.122;2023-07-28T08:19:46;21.10;99.90
2639;DHT22;1329;51.384;7.122;2023-07-28T08:22:27;21.10;99.90
2639;DHT22;1329;51.384;7.122;2023-07-28T08:24:58;21.10;99.90
2639;DHT22;1329;51.384;7.122;2023-07-28T08:27:26;21.20;99.90
2639;DHT22;1329;51.384;7.122;2023-07-28T08:29:55;21.20;99.90
2639;DHT22;1329;51.384;7.122;2023-07-28T08:32:22;21.30;99.90
2639;DHT22;1329;51.384;7.122;2023-07-28T08:34:59;21.30;99.90
2639;DHT22;1329;51.384;7.122;2023-07-28T08:37:27;21.40;99.90
2639;DHT22;1329;51.384;7.122;2023-07-28T08:39:55;21.40;99.90
2639;DHT22;1329;51.384;7.122;2023-07-28T08:42:22;21.40;99.90
2639;DHT22;1329;51.384;7.122;2023-07-28T08:44:49;21.40;99.90
2639;DHT22;1329;51.384;7.122;2023-07-28T08:47:19;21.40;99.90
2639;DHT22;1329;51.384;7.122;2023-07-28T08:49:47;21.40;99.90
2639;DHT22;1329;51.384;7.122;2023-07-28T08:52:16;21.40;99.90
2639;DHT22;1329;51.384;7.122;2023-07-28T08:54:43;21.50;99.90
2639;DHT22;1329;51.384;7.122;2023-07-28T08:57:12;21.50;99.90
2639;DHT22;1329;51.384;7.122;2023-07-28T09:00:08;21.60;99.90
2639;DHT22;1329;51.384;7.122;2023-07-28T09:02:44;21.60;99.90
2639;DHT22;1329;51.384;7.122;2023-07-28T09:05:17;21.60;99.90
2639;DHT22;1329;51.384;7.122;2023-07-28T09:07:58;21.60;99.90
2639;DHT22;1329;51.384;7.122;2023-07-28T09:10:47;21.60;99.90
2639;DHT22;1329;51.384;7.122;2023-07-28T09:13:16;21.70;99.90
2639;DHT22;1329;51.384;7.122;2023-07-28T09:15:44;21.60;99.90
2639;DHT22;1329;51.384;7.122;2023-07-28T09:18:16;21.70;99.90
2639;DHT22;1329;51.384;7.122;2023-07-28T09:20:43;21.70;99.90
2639;DHT22;1329;51.384;7.122;2023-07-28T09:23:28;21.80;99.90
2639;DHT22;1329;51.384;7.122;2023-07-28T09:26:14;21.80;99.90
2639;DHT22;1329;51.384;7.122;2023-07-28T09:28:42;21.80;99.90
2639;DHT22;1329;51.384;7.122;2023-07-28T09:31:40;21.80;99.90
2639;DHT22;1329;51.384;7.122;2023-07-28T09:34:50;21.70;99.90
2639;DHT22;1329;51.384;7.122;2023-07-28T09:37:39;21.70;99.90
2639;DHT22;1329;51.384;7.122;2023-07-28T09:40:19;21.70;99.90
2639;DHT22;1329;51.384;7.122;2023-07-28T09:43:01;21.70;99.90
2639;DHT22;1329;51.384;7.122;2023-07-28T09:45:31;21.80;99.90
2639;DHT22;1329;51.384;7.122;2023-07-28T09:48:01;21.80;99.90
2639;DHT22;1329;51.384;7.122;2023-07-28T09:50:45;21.90;99.90
2639;DHT22;1329;51.384;7.122;2023-07-28T09:53:13;22.00;99.90
2639;DHT22;1329;51.384;7.122;2023-07-28T09:55:43;22.00;99.90
2639;DHT22;1329;51.384;7.122;2023-07-28T09:58:12;22.00;99.90
2639;DHT22;1329;51.384;7.122;2023-07-28T10:00:43;22.10;99.90
2639;DHT22;1329;51.384;7.122;2023-07-28T10:03:14;22.10;99.90
2639;DHT22;1329;51.384;7.122;2023-07-28T10:05:41;22.20;99.90
2639;DHT22;1329;51.384;7.122;2023-07-28T10:08:10;22.20;99.90
2639;DHT22;1329;51.384;7.122;2023-07-28T10:10:54;22.20;99.90
2639;DHT22;1329;51.384;7.122;2023-07-28T10:13:28;22.20;99.90
2639;DHT22;1329;51.384;7.122;2023-07-28T10:16:38;22.20;99.90
2639;DHT22;1329;51.384;7.122;2023-07-28T10:19:11;22.30;99.90
2639;DHT22;1329;51.384;7.122;2023-07-28T10:21:40;22.20;99.90
2639;DHT22;1329;51.384;7.122;2023-07-28T10:24:09;22.30;99.90
2639;DHT22;1329;51.384;7.122;2023-07-28T10:26:40;22.30;99.90
2639;DHT22;1329;51.384;7.122;2023-07-28T10:29:08;22.30;99.90
2639;DHT22;1329;51.384;7.122;2023-07-28T10:31:51;22.30;99.90
2639;DHT22;1329;51.384;7.122;2023-07-28T10:34:41;22.40;99.90
2639;DHT22;1329;51.384;7.122;2023-07-28T10:37:14;22.50;99.90
2639;DHT22;1329;51.384;7.122;2023-07-28T10:39:43;22.50;99.90
2639;DHT22;1329;51.384;7.122;2023-07-28T10:42:10;22.60;99.90
2639;DHT22;1329;51.384;7.122;2023-07-28T10:48:15;22.70;99.90
2639;DHT22;1329;51.384;7.122;2023-07-28T10:50:45;22.70;99.90
2639;DHT22;1329;51.384;7.122;2023-07-28T10:53:14;22.70;99.90
2639;DHT22;1329;51.384;7.122;2023-07-28T10:56:04;22.80;99.90
2639;DHT22;1329;51.384;7.122;2023-07-28T10:58:34;22.80;99.90
2639;DHT22;1329;51.384;7.122;2023-07-28T11:01:02;22.90;99.90
2639;DHT22;1329;51.384;7.122;2023-07-28T11:03:29;23.00;99.90
2639;DHT22;1329;51.384;7.122;2023-07-28T11:06:28;23.00;99.90
2639;DHT22;1329;51.384;7.122;2023-07-28T11:08:55;23.10;99.90
2639;DHT22;1329;51.384;7.122;2023-07-28T11:12:27;23.20;99.90
2639;DHT22;1329;51.384;7.122;2023-07-28T11:14:35;23.20;99.90
2639;DHT22;1329;51.384;7.122;2023-07-28T11:17:08;23.30;99.90
2639;DHT22;1329;51.384;7.122;2023-07-28T11:26:43;23.70;99.90
2639;DHT22;1329;51.384;7.122;2023-07-28T11:29:19;23.80;99.90
2639;DHT22;1329;51.384;7.122;2023-07-28T11:32:11;23.90;99.90
2639;DHT22;1329;51.384;7.122;2023-07-28T11:34:41;24.00;99.90
2639;DHT22;1329;51.384;7.122;2023-07-28T11:37:21;24.00;99.90
2639;DHT22;1329;51.384;7.122;2023-07-28T11:40:16;24.00;99.90
2639;DHT22;1329;51.384;7.122;2023-07-28T11:42:59;24.00;99.90
2639;DHT22;1329;51.384;7.122;2023-07-28T11:45:29;24.00;99.90
2639;DHT22;1329;51.384;7.122;2023-07-28T11:48:00;23.90;99.90
2639;DHT22;1329;51.384;7.122;2023-07-28T11:50:42;23.90;99.90
2639;DHT22;1329;51.384;7.122;2023-07-28T11:53:14;23.90;99.90
2639;DHT22;1329;51.384;7.122;2023-07-28T11:55:41;23.90;99.90
2639;DHT22;1329;51.384;7.122;2023-07-28T11:58:13;23.90;99.90
2639;DHT22;1329;51.384;7.122;2023-07-28T12:00:43;24.00;99.90
2639;DHT22;1329;51.384;7.122;2023-07-28T12:03:19;24.00;99.90
2639;DHT22;1329;51.384;7.122;2023-07-28T12:06:27;24.00;99.90
2639;DHT22;1329;51.384;7.122;2023-07-28T12:09:04;24.10;99.90
2639;DHT22;1329;51.384;7.122;2023-07-28T12:11:42;24.10;99.90
2639;DHT22;1329;51.384;7.122;2023-07-28T12:14:11;24.10;99.90
2639;DHT22;1329;51.384;7.122;2023-07-28T12:16:46;24.10;99.90
2639;DHT22;1329;51.384;7.122;2023-07-28T12:19:14;24.00;99.90
2639;DHT22;1329;51.384;7.122;2023-07-28T12:21:42;24.00;99.90
2639;DHT22;1329;51.384;7.122;2023-07-28T12:24:10;23.90;99.90
2639;DHT22;1329;51.384;7.122;2023-07-28T12:26:38;23.80;99.90
2639;DHT22;1329;51.384;7.122;2023-07-28T12:29:05;23.70;99.90
2639;DHT22;1329;51.384;7.122;2023-07-28T12:31:36;23.70;99.90
2639;DHT22;1329;51.384;7.122;2023-07-28T12:34:04;23.60;99.90
2639;DHT22;1329;51.384;7.122;2023-07-28T12:36:31;23.60;99.90
2639;DHT22;1329;51.384;7.122;2023-07-28T12:38:59;23.50;99.90
2639;DHT22;1329;51.384;7.122;2023-07-28T12:41:26;23.50;99.90
2639;DHT22;1329;51.384;7.122;2023-07-28T12:43:53;23.50;99.90
2639;DHT22;1329;51.384;7.122;2023-07-28T12:46:21;23.50;99.90
2639;DHT22;1329;51.384;7.122;2023-07-28T12:48:50;23.60;99.90
2639;DHT22;1329;51.384;7.122;2023-07-28T12:51:17;23.60;99.90
2639;DHT22;1329;51.384;7.122;2023-07-28T12:54:05;23.70;99.90
2639;DHT22;1329;51.384;7.122;2023-07-28T12:56:48;23.80;99.90
2639;DHT22;1329;51.384;7.122;2023-07-28T12:59:15;24.00;99.90
2639;DHT22;1329;51.384;7.122;2023-07-28T13:01:43;24.10;99.90
2639;DHT22;1329;51.384;7.122;2023-07-28T13:11:02;24.50;99.90
2639;DHT22;1329;51.384;7.122;2023-07-28T13:13:31;24.60;99.90
2639;DHT22;1329;51.384;7.122;2023-07-28T13:16:12;24.60;99.90
2639;DHT22;1329;51.384;7.122;2023-07-28T13:22:26;24.60;99.90
2639;DHT22;1329;51.384;7.122;2023-07-28T13:25:32;24.60;99.90
2639;DHT22;1329;51.384;7.122;2023-07-28T13:28:01;24.60;99.90
2639;DHT22;1329;51.384;7.122;2023-07-28T13:30:30;24.60;99.90
2639;DHT22;1329;51.384;7.122;2023-07-28T13:33:48;24.60;99.90
2639;DHT22;1329;51.384;7.122;2023-07-28T13:36:15;24.70;99.90
2639;DHT22;1329;51.384;7.122;2023-07-28T13:38:48;24.80;99.90
2639;DHT22;1329;51.384;7.122;2023-07-28T13:41:15;24.90;99.90
2639;DHT22;1329;51.384;7.122;2023-07-28T13:43:44;25.00;99.90
2639;DHT22;1329;51.384;7.122;2023-07-28T13:46:11;25.10;99.90
2639;DHT22;1329;51.384;7.122;2023-07-28T13:48:38;25.20;99.90
2639;DHT22;1329;51.384;7.122;2023-07-28T13:51:06;25.20;99.90
2639;DHT22;1329;51.384;7.122;2023-07-28T13:54:00;25.20;99.90
2639;DHT22;1329;51.384;7.122;2023-07-28T13:56:44;25.20;99.90
2639;DHT22;1329;51.384;7.122;2023-07-28T13:59:16;25.00;99.90
2639;DHT22;1329;51.384;7.122;2023-07-28T14:01:44;24.90;99.90
2639;DHT22;1329;51.384;7.122;2023-07-28T14:04:11;24.90;99.90
2639;DHT22;1329;51.384;7.122;2023-07-28T14:06:39;24.80;99.90
2639;DHT22;1329;51.384;7.122;2023-07-28T14:09:07;24.70;99.90
2639;DHT22;1329;51.384;7.122;2023-07-28T14:11:44;24.60;99.90
2639;DHT22;1329;51.384;7.122;2023-07-28T14:14:12;24.50;99.90
2639;DHT22;1329;51.384;7.122;2023-07-28T14:17:01;24.40;99.90
2639;DHT22;1329;51.384;7.122;2023-07-28T14:19:38;24.30;99.90
2639;DHT22;1329;51.384;7.122;2023-07-28T14:22:06;24.30;99.90
2639;DHT22;1329;51.384;7.122;2023-07-28T14:28:28;24.30;99.90
2639;DHT22;1329;51.384;7.122;2023-07-28T14:30:57;24.30;99.90
2639;DHT22;1329;51.384;7.122;2023-07-28T14:33:26;24.30;99.90
2639;DHT22;1329;51.384;7.122;2023-07-28T14:35:53;24.30;99.90
2639;DHT22;1329;51.384;7.122;2023-07-28T14:38:24;24.30;99.90
2639;DHT22;1329;51.384;7.122;2023-07-28T14:40:59;24.30;99.90
2639;DHT22;1329;51.384;7.122;2023-07-28T14:43:29;24.30;99.90
2639;DHT22;1329;51.384;7.122;2023-07-28T14:45:58;24.30;99.90
2639;DHT22;1329;51.384;7.122;2023-07-28T14:48:25;24.30;99.90
2639;DHT22;1329;51.384;7.122;2023-07-28T14:50:52;24.30;99.90
2639;DHT22;1329;51.384;7.122;2023-07-28T14:53:45;24.30;99.90
2639;DHT22;1329;51.384;7.122;2023-07-28T14:56:26;24.40;99.90
2639;DHT22;1329;51.384;7.122;2023-07-28T14:59:18;24.40;99.90
2639;DHT22;1329;51.384;7.122;2023-07-28T15:01:47;24.40;99.90
2639;DHT22;1329;51.384;7.122;2023-07-28T15:07:43;24.30;99.90
2639;DHT22;1329;51.384;7.122;2023-07-28T15:10:13;24.30;99.90
2639;DHT22;1329;51.384;7.122;2023-07-28T15:12:40;24.30;99.90
2639;DHT22;1329;51.384;7.122;2023-07-28T15:15:15;24.30;99.90
2639;DHT22;1329;51.384;7.122;2023-07-28T15:17:48;24.20;99.90
2639;DHT22;1329;51.384;7.122;2023-07-28T15:20:41;24.20;99.90
2639;DHT22;1329;51.384;7.122;2023-07-28T15:23:09;24.20;99.90
2639;DHT22;1329;51.384;7.122;2023-07-28T15:25:54;24.20;99.90
2639;DHT22;1329;51.384;7.122;2023-07-28T15:28:23;24.30;99.90
2639;DHT22;1329;51.384;7.122;2023-07-28T15:30:50;24.30;99.90
2639;DHT22;1329;51.384;7.122;2023-07-28T15:33:20;24.40;99.90
2639;DHT22;1329;51.384;7.122;2023-07-28T15:36:15;24.40;99.90
2639;DHT22;1329;51.384;7.122;2023-07-28T15:38:51;24.50;99.90
2639;DHT22;1329;51.384;7.122;2023-07-28T15:41:18;24.50;99.90
2639;DHT22;1329;51.384;7.122;2023-07-28T15:43:46;24.40;99.90
2639;DHT22;1329;51.384;7.122;2023-07-28T15:46:12;24.40;99.90
2639;DHT22;1329;51.384;7.122;2023-07-28T15:48:48;24.40;99.90
2639;DHT22;1329;51.384;7.122;2023-07-28T15:51:15;24.20;99.90
2639;DHT22;1329;51.384;7.122;2023-07-28T15:53:45;24.20;99.90
2639;DHT22;1329;51.384;7.122;2023-07-28T15:56:26;24.20;99.90
2639;DHT22;1329;51.384;7.122;2023-07-28T15:58:54;24.10;99.90
2639;DHT22;1329;51.384;7.122;2023-07-28T16:01:22;24.10;99.90
2639;DHT22;1329;51.384;7.122;2023-07-28T16:04:05;24.10;99.90
2639;DHT22;1329;51.384;7.122;2023-07-28T16:06:35;24.00;99.90
2639;DHT22;1329;51.384;7.122;2023-07-28T16:09:02;24.00;99.90
2639;DHT22;1329;51.384;7.122;2023-07-28T16:11:32;24.00;99.90
2639;DHT22;1329;51.384;7.122;2023-07-28T16:16:50;23.90;99.90
2639;DHT22;1329;51.384;7.122;2023-07-28T16:23:08;23.90;99.90
2639;DHT22;1329;51.384;7.122;2023-07-28T16:25:36;23.80;99.90
2639;DHT22;1329;51.384;7.122;2023-07-28T16:28:03;23.80;99.90
2639;DHT22;1329;51.384;7.122;2023-07-28T16:30:59;23.70;99.90
2639;DHT22;1329;51.384;7.122;2023-07-28T16:33:36;23.70;99.90
2639;DHT22;1329;51.384;7.122;2023-07-28T16:36:03;23.70;99.90
2639;DHT22;1329;51.384;7.122;2023-07-28T16:38:33;23.60;99.90
2639;DHT22;1329;51.384;7.122;2023-07-28T16:41:13;23.60;99.90
2639;DHT22;1329;51.384;7.122;2023-07-28T16:43:40;23.50;99.90
2639;DHT22;1329;51.384;7.122;2023-07-28T16:46:07;23.50;99.90
2639;DHT22;1329;51.384;7.122;2023-07-28T16:48:53;23.40;99.90
2639;DHT22;1329;51.384;7.122;2023-07-28T16:51:36;23.40;99.90
2639;DHT22;1329;51.384;7.122;2023-07-28T16:54:07;23.50;99.90
2639;DHT22;1329;51.384;7.122;2023-07-28T16:56:41;23.60;99.90
2639;DHT22;1329;51.384;7.122;2023-07-28T16:59:11;23.60;99.90
2639;DHT22;1329;51.384;7.122;2023-07-28T17:01:41;23.70;99.90
2639;DHT22;1329;51.384;7.122;2023-07-28T17:04:09;23.80;99.90
2639;DHT22;1329;51.384;7.122;2023-07-28T17:06:44;23.90;99.90